createdAt,value
2018-11-07T00:00:09.360Z,100.00
2018-11-07T00:02:38.463Z,100.00
2018-11-07T00:05:07.684Z,100.00
2018-11-07T00:07:36.844Z,100.00
2018-11-07T00:10:11.800Z,100.00
2018-11-07T00:12:40.852Z,100.00
2018-11-07T00:15:13.754Z,100.00
2018-11-07T00:17:43.022Z,100.00
2018-11-07T00:20:12.666Z,100.00
2018-11-07T00:22:41.793Z,100.00
2018-11-07T00:25:11.413Z,100.00
2018-11-07T00:27:40.691Z,100.00
2018-11-07T00:30:10.698Z,100.00
2018-11-07T00:32:39.912Z,100.00
2018-11-07T00:35:10.204Z,100.00
2018-11-07T00:37:39.453Z,100.00
2018-11-07T00:40:08.599Z,100.00
2018-11-07T00:42:37.587Z,100.00
2018-11-07T00:45:10.655Z,100.00
2018-11-07T00:47:39.776Z,100.00
2018-11-07T00:50:12.468Z,100.00
2018-11-07T00:52:42.119Z,100.00
2018-11-07T00:55:11.739Z,100.00
2018-11-07T00:57:40.904Z,100.00
2018-11-07T01:00:12.963Z,100.00
2018-11-07T01:02:42.013Z,100.00
2018-11-07T01:05:12.360Z,100.00
2018-11-07T01:07:42.449Z,100.00
2018-11-07T01:10:11.504Z,100.00
2018-11-07T01:12:41.545Z,100.00
2018-11-07T01:15:11.356Z,100.00
2018-11-07T01:17:41.063Z,100.00
2018-11-07T01:20:12.176Z,100.00
2018-11-07T01:22:41.221Z,100.00
2018-11-07T01:25:10.327Z,100.00
2018-11-07T01:27:39.394Z,100.00
2018-11-07T01:30:11.556Z,100.00
2018-11-07T01:32:40.771Z,100.00
2018-11-07T01:35:10.225Z,100.00
2018-11-07T01:37:39.355Z,100.00
2018-11-07T01:40:12.141Z,100.00
2018-11-07T01:42:41.534Z,100.00
2018-11-07T01:45:11.760Z,100.00
2018-11-07T01:47:40.847Z,100.00
2018-11-07T01:50:12.105Z,100.00
2018-11-07T01:52:41.342Z,100.00
2018-11-07T01:55:10.671Z,100.00
2018-11-07T01:57:39.748Z,100.00
2018-11-07T02:00:11.160Z,100.00
2018-11-07T02:02:41.295Z,100.00
2018-11-07T02:05:10.457Z,100.00
2018-11-07T02:07:39.838Z,100.00
2018-11-07T02:10:09.840Z,100.00
2018-11-07T02:12:39.333Z,100.00
2018-11-07T02:15:09.140Z,100.00
2018-11-07T02:17:38.900Z,100.00
2018-11-07T02:20:09.960Z,100.00
2018-11-07T02:22:39.060Z,100.00
2018-11-07T02:25:08.446Z,100.00
2018-11-07T02:27:37.796Z,100.00
2018-11-07T02:30:10.261Z,100.00
2018-11-07T02:32:39.322Z,100.00
2018-11-07T02:35:08.421Z,100.00
2018-11-07T02:37:37.646Z,100.00
2018-11-07T02:40:07.732Z,100.00
2018-11-07T02:42:36.901Z,100.00
2018-11-07T02:45:06.563Z,100.00
2018-11-07T02:47:35.731Z,100.00
2018-11-07T02:50:05.791Z,100.00
2018-11-07T02:52:34.903Z,100.00
2018-11-07T02:55:04.346Z,100.00
2018-11-07T02:57:33.425Z,100.00
2018-11-07T03:00:02.581Z,100.00
2018-11-07T03:02:31.684Z,100.00
2018-11-07T03:05:00.866Z,100.00
2018-11-07T03:07:30.702Z,100.00
2018-11-07T03:09:59.843Z,100.00
2018-11-07T03:12:28.984Z,100.00
2018-11-07T03:14:58.023Z,100.00
2018-11-07T03:17:27.072Z,100.00
2018-11-07T03:19:56.130Z,100.00
2018-11-07T03:22:25.243Z,100.00
2018-11-07T03:24:54.342Z,100.00
2018-11-07T03:27:23.558Z,100.00
2018-11-07T03:29:52.616Z,100.00
2018-11-07T03:32:21.640Z,100.00
2018-11-07T03:34:50.655Z,100.00
2018-11-07T03:37:19.749Z,100.00
2018-11-07T03:39:48.776Z,100.00
2018-11-07T03:42:17.800Z,100.00
2018-11-07T03:44:46.882Z,100.00
2018-11-07T03:47:15.932Z,100.00
2018-11-07T03:49:45.056Z,100.00
2018-11-07T03:52:14.095Z,100.00
2018-11-07T03:54:43.146Z,100.00
2018-11-07T03:57:12.243Z,100.00
2018-11-07T03:59:41.257Z,100.00
2018-11-07T04:02:10.345Z,100.00
2018-11-07T04:04:39.395Z,100.00
2018-11-07T04:07:09.462Z,100.00
2018-11-07T04:09:38.506Z,100.00
2018-11-07T04:12:07.573Z,100.00
2018-11-07T04:14:36.590Z,100.00
2018-11-07T04:17:05.636Z,100.00
2018-11-07T04:19:34.703Z,100.00
2018-11-07T04:22:03.778Z,100.00
2018-11-07T04:24:32.816Z,100.00
2018-11-07T04:27:01.870Z,100.00
2018-11-07T04:29:30.923Z,100.00
2018-11-07T04:31:59.982Z,100.00
2018-11-07T04:34:29.213Z,100.00
2018-11-07T04:36:58.269Z,100.00
2018-11-07T04:39:27.377Z,100.00
2018-11-07T04:41:56.476Z,100.00
2018-11-07T04:44:26.327Z,100.00
2018-11-07T04:46:55.375Z,100.00
2018-11-07T04:49:24.413Z,100.00
2018-11-07T04:51:53.560Z,100.00
2018-11-07T04:54:22.581Z,100.00
2018-11-07T04:56:51.621Z,100.00
2018-11-07T04:59:20.786Z,100.00
2018-11-07T05:01:49.905Z,100.00
2018-11-07T05:04:18.947Z,100.00
2018-11-07T05:06:48.150Z,100.00
2018-11-07T05:09:17.287Z,100.00
2018-11-07T05:11:46.364Z,100.00
2018-11-07T05:14:15.423Z,100.00
2018-11-07T05:16:44.472Z,100.00
2018-11-07T05:19:13.516Z,100.00
2018-11-07T05:21:42.554Z,100.00
2018-11-07T05:24:11.694Z,100.00
2018-11-07T05:26:40.834Z,100.00
2018-11-07T05:29:09.998Z,100.00
2018-11-07T05:31:39.100Z,100.00
2018-11-07T05:34:08.189Z,100.00
2018-11-07T05:36:37.312Z,100.00
2018-11-07T05:39:08.937Z,100.00
2018-11-07T05:41:38.098Z,100.00
2018-11-07T05:44:07.359Z,100.00
2018-11-07T05:46:36.477Z,100.00
2018-11-07T05:49:05.695Z,100.00
2018-11-07T05:51:34.643Z,100.00
2018-11-07T05:54:03.869Z,100.00
2018-11-07T05:56:32.974Z,100.00
2018-11-07T05:59:02.671Z,100.00
2018-11-07T06:01:32.130Z,100.00
2018-11-07T06:04:01.182Z,100.00
2018-11-07T06:06:30.281Z,100.00
2018-11-07T06:08:59.970Z,100.00
2018-11-07T06:11:29.961Z,100.00
2018-11-07T06:13:58.965Z,100.00
2018-11-07T06:16:28.032Z,100.00
2018-11-07T06:18:57.124Z,100.00
2018-11-07T06:21:26.225Z,100.00
2018-11-07T06:23:55.324Z,100.00
2018-11-07T06:26:24.400Z,100.00
2018-11-07T06:28:53.563Z,100.00
2018-11-07T06:31:22.644Z,100.00
2018-11-07T06:33:51.763Z,100.00
2018-11-07T06:36:20.795Z,100.00
2018-11-07T06:38:49.870Z,100.00
2018-11-07T06:41:18.923Z,100.00
2018-11-07T06:43:47.976Z,100.00
2018-11-07T06:46:17.009Z,100.00
2018-11-07T06:48:46.051Z,100.00
2018-11-07T06:51:15.128Z,100.00
2018-11-07T06:53:44.151Z,100.00
2018-11-07T06:56:13.403Z,100.00
2018-11-07T06:58:42.547Z,100.00
2018-11-07T07:01:11.652Z,100.00
2018-11-07T07:03:40.738Z,100.00
2018-11-07T07:06:09.841Z,100.00
2018-11-07T07:08:38.876Z,100.00
2018-11-07T07:11:07.920Z,100.00
2018-11-07T07:13:37.088Z,100.00
2018-11-07T07:16:06.283Z,100.00
2018-11-07T07:18:35.365Z,100.00
2018-11-07T07:21:05.661Z,100.00
2018-11-07T07:23:34.707Z,100.00
2018-11-07T07:26:03.905Z,100.00
2018-11-07T07:28:33.004Z,100.00
2018-11-07T07:31:02.119Z,100.00
2018-11-07T07:33:31.205Z,100.00
2018-11-07T07:36:00.297Z,100.00
2018-11-07T07:38:29.315Z,100.00
2018-11-07T07:40:58.371Z,100.00
2018-11-07T07:43:27.385Z,100.00
2018-11-07T07:45:56.427Z,100.00
2018-11-07T07:48:25.592Z,100.00
2018-11-07T07:50:54.689Z,100.00
2018-11-07T07:53:23.730Z,100.00
2018-11-07T07:55:52.752Z,100.00
2018-11-07T07:58:21.777Z,100.00
2018-11-07T08:00:50.836Z,100.00
2018-11-07T08:03:20.018Z,100.00
2018-11-07T08:05:49.106Z,100.00
2018-11-07T08:08:18.199Z,100.00
2018-11-07T08:10:47.324Z,100.00
2018-11-07T08:13:16.577Z,100.00
2018-11-07T08:15:45.717Z,100.00
2018-11-07T08:18:14.783Z,100.00
2018-11-07T08:20:43.874Z,100.00
2018-11-07T08:23:12.963Z,100.00
2018-11-07T08:25:42.017Z,100.00
2018-11-07T08:28:11.106Z,100.00
2018-11-07T08:30:40.209Z,100.00
2018-11-07T08:33:09.212Z,100.00
2018-11-07T08:35:38.239Z,100.00
2018-11-07T08:38:07.274Z,100.00
2018-11-07T08:40:37.003Z,100.00
2018-11-07T08:43:06.104Z,100.00
2018-11-07T08:45:35.254Z,100.00
2018-11-07T08:48:04.587Z,99.22
2018-11-07T08:50:33.631Z,98.40
2018-11-07T08:53:02.978Z,98.32
2018-11-07T08:55:32.116Z,98.23
2018-11-07T08:58:02.183Z,97.31
2018-11-07T09:00:31.450Z,98.01
2018-11-07T09:03:00.899Z,97.92
2018-11-07T09:05:30.298Z,98.31
2018-11-07T09:08:00.293Z,98.08
2018-11-07T09:10:29.522Z,98.46
2018-11-07T09:12:58.844Z,98.67
2018-11-07T09:15:28.205Z,98.79
2018-11-07T09:17:57.321Z,98.60
2018-11-07T09:20:26.457Z,98.61
2018-11-07T09:22:56.492Z,98.16
2018-11-07T09:25:26.933Z,97.15
2018-11-07T09:27:56.234Z,97.58
2018-11-07T09:30:26.358Z,97.11
2018-11-07T09:32:57.892Z,95.92
2018-11-07T09:35:27.957Z,96.02
2018-11-07T09:37:58.730Z,95.80
2018-11-07T09:40:28.124Z,95.24
2018-11-07T09:42:57.815Z,94.68
2018-11-07T09:45:27.002Z,93.36
2018-11-07T09:47:56.116Z,92.36
2018-11-07T09:50:25.216Z,92.92
2018-11-07T09:52:54.272Z,93.89
2018-11-07T09:55:23.459Z,92.26
2018-11-07T09:57:52.513Z,91.96
2018-11-07T10:00:21.967Z,92.45
2018-11-07T10:02:51.047Z,92.82
2018-11-07T10:05:20.825Z,90.07
2018-11-07T10:07:49.961Z,90.12
2018-11-07T10:10:20.344Z,88.53
2018-11-07T10:12:49.472Z,88.87
2018-11-07T10:15:18.836Z,88.49
2018-11-07T10:17:47.886Z,88.53
2018-11-07T10:20:18.386Z,89.03
2018-11-07T10:22:47.993Z,89.87
2018-11-07T10:25:17.176Z,90.44
2018-11-07T10:27:46.607Z,89.70
2018-11-07T10:30:16.981Z,89.59
2018-11-07T10:32:47.121Z,89.23
2018-11-07T10:35:16.262Z,89.03
2018-11-07T10:37:45.361Z,88.68
2018-11-07T10:40:16.500Z,88.65
2018-11-07T10:42:46.118Z,88.05
2018-11-07T10:45:15.223Z,88.71
2018-11-07T10:47:45.291Z,87.94
2018-11-07T10:50:15.431Z,87.82
2018-11-07T10:52:45.088Z,88.84
2018-11-07T10:55:14.851Z,88.46
2018-11-07T10:57:43.944Z,89.60
2018-11-07T11:00:20.176Z,89.02
2018-11-07T11:03:55.122Z,89.51
2018-11-07T11:06:24.193Z,89.25
2018-11-07T11:08:53.410Z,89.11
2018-11-07T11:11:22.649Z,88.73
2018-11-07T11:13:51.751Z,88.34
2018-11-07T11:16:20.859Z,88.65
2018-11-07T11:18:49.983Z,88.58
2018-11-07T11:21:19.094Z,88.05
2018-11-07T11:23:48.175Z,88.09
2018-11-07T11:26:17.273Z,87.72
2018-11-07T11:28:46.318Z,88.55
2018-11-07T11:31:15.369Z,87.77
2018-11-07T11:33:44.600Z,87.72
2018-11-07T11:36:14.322Z,88.18
2018-11-07T11:38:43.428Z,88.31
2018-11-07T11:41:12.777Z,88.28
2018-11-07T11:43:41.798Z,88.11
2018-11-07T11:46:10.848Z,88.32
2018-11-07T11:48:39.915Z,88.71
2018-11-07T11:51:09.065Z,87.98
2018-11-07T11:53:38.391Z,88.04
2018-11-07T11:56:07.523Z,88.52
2018-11-07T11:58:36.525Z,87.87
2018-11-07T12:01:06.157Z,88.27
2018-11-07T12:03:35.283Z,89.51
2018-11-07T12:06:04.708Z,88.19
2018-11-07T12:08:33.935Z,88.12
2018-11-07T12:11:02.834Z,87.85
2018-11-07T12:13:31.959Z,88.42
2018-11-07T12:16:00.959Z,89.38
2018-11-07T12:18:30.004Z,88.50
2018-11-07T12:20:59.304Z,88.91
2018-11-07T12:23:28.426Z,88.82
2018-11-07T12:25:57.580Z,88.82
2018-11-07T12:28:26.719Z,89.12
2018-11-07T12:30:55.891Z,89.06
2018-11-07T12:33:24.967Z,88.68
2018-11-07T12:35:54.062Z,88.83
2018-11-07T12:38:23.195Z,89.12
2018-11-07T12:40:52.298Z,89.22
2018-11-07T12:43:21.387Z,88.75
2018-11-07T12:45:50.463Z,89.22
2018-11-07T12:48:19.515Z,89.67
2018-11-07T12:50:48.586Z,89.78
2018-11-07T12:53:17.703Z,90.40
2018-11-07T12:55:46.769Z,90.47
2018-11-07T12:58:15.988Z,91.13
2018-11-07T13:00:45.005Z,90.97
2018-11-07T13:03:14.181Z,91.25
2018-11-07T13:05:43.265Z,90.31
2018-11-07T13:08:12.453Z,90.18
2018-11-07T13:10:41.668Z,90.60
2018-11-07T13:13:10.729Z,90.57
2018-11-07T13:15:39.804Z,90.49
2018-11-07T13:18:08.978Z,91.13
2018-11-07T13:20:38.108Z,90.69
2018-11-07T13:23:07.137Z,90.87
2018-11-07T13:25:36.213Z,91.22
2018-11-07T13:28:05.488Z,91.14
2018-11-07T13:30:34.543Z,91.41
2018-11-07T13:33:03.581Z,91.14
2018-11-07T13:35:32.644Z,91.67
2018-11-07T13:38:02.061Z,91.89
2018-11-07T13:40:30.816Z,92.01
2018-11-07T13:42:59.982Z,91.66
2018-11-07T13:45:29.034Z,91.62
2018-11-07T13:47:58.084Z,91.88
2018-11-07T13:50:27.197Z,91.91
2018-11-07T13:52:56.387Z,92.26
2018-11-07T13:55:25.466Z,92.54
2018-11-07T13:57:54.560Z,92.36
2018-11-07T14:00:23.944Z,92.13
2018-11-07T14:02:53.648Z,91.56
2018-11-07T14:05:22.916Z,91.82
2018-11-07T14:07:51.918Z,91.55
2018-11-07T14:10:22.055Z,91.80
2018-11-07T14:12:51.645Z,91.75
2018-11-07T14:15:20.883Z,92.15
2018-11-07T14:17:50.284Z,92.03
2018-11-07T14:20:19.572Z,92.44
2018-11-07T14:22:48.663Z,92.57
2018-11-07T14:25:17.768Z,93.40
2018-11-07T14:27:47.171Z,92.77
2018-11-07T14:30:18.363Z,93.38
2018-11-07T14:32:53.854Z,92.92
2018-11-07T14:35:23.276Z,93.63
2018-11-07T14:37:53.201Z,93.94
2018-11-07T14:40:22.388Z,93.59
2018-11-07T14:42:51.565Z,93.65
2018-11-07T14:45:20.841Z,94.10
2018-11-07T14:47:50.205Z,94.12
2018-11-07T14:50:19.184Z,94.63
2018-11-07T14:52:48.292Z,94.44
2018-11-07T14:55:17.368Z,94.88
2018-11-07T14:57:46.418Z,95.18
2018-11-07T15:00:16.177Z,94.83
2018-11-07T15:02:45.900Z,95.35
2018-11-07T15:05:15.778Z,95.42
2018-11-07T15:07:45.071Z,96.00
2018-11-07T15:10:15.225Z,96.02
2018-11-07T15:12:44.346Z,95.90
2018-11-07T15:15:14.851Z,96.23
2018-11-07T15:17:44.021Z,96.17
2018-11-07T15:20:14.211Z,96.86
2018-11-07T15:22:43.338Z,96.96
2018-11-07T15:25:13.683Z,97.19
2018-11-07T15:27:43.983Z,97.65
2018-11-07T15:30:14.255Z,97.61
2018-11-07T15:32:43.936Z,98.51
2018-11-07T15:35:13.258Z,98.56
2018-11-07T15:37:42.350Z,98.52
2018-11-07T15:40:13.273Z,98.78
2018-11-07T15:42:42.749Z,99.29
2018-11-07T15:45:15.458Z,98.95
2018-11-07T15:47:44.676Z,99.35
2018-11-07T15:50:19.217Z,99.32
2018-11-07T15:52:48.701Z,99.35
2018-11-07T15:55:17.936Z,99.73
2018-11-07T15:57:47.012Z,99.74
2018-11-07T16:00:17.129Z,99.94
2018-11-07T16:02:46.286Z,100.00
2018-11-07T16:05:16.059Z,99.95
2018-11-07T16:07:45.133Z,99.73
2018-11-07T16:10:14.925Z,99.61
2018-11-07T16:12:43.973Z,100.00
2018-11-07T16:15:15.318Z,100.00
2018-11-07T16:17:44.670Z,100.00
2018-11-07T16:20:18.003Z,100.00
2018-11-07T16:22:47.806Z,100.00
2018-11-07T16:25:17.652Z,100.00
2018-11-07T16:27:46.760Z,100.00
2018-11-07T16:30:18.066Z,100.00
2018-11-07T16:32:47.096Z,100.00
2018-11-07T16:35:16.362Z,100.00
2018-11-07T16:37:45.407Z,100.00
2018-11-07T16:40:15.871Z,100.00
2018-11-07T16:42:45.340Z,100.00
2018-11-07T16:45:15.565Z,100.00
2018-11-07T16:47:44.814Z,100.00
2018-11-07T16:50:14.839Z,100.00
2018-11-07T16:52:43.965Z,100.00
2018-11-07T16:55:13.348Z,100.00
2018-11-07T16:57:42.439Z,100.00
2018-11-07T17:00:19.666Z,100.00
2018-11-07T17:02:49.481Z,100.00
2018-11-07T17:05:19.079Z,100.00
2018-11-07T17:07:48.392Z,100.00
2018-11-07T17:10:17.536Z,100.00
2018-11-07T17:12:46.577Z,100.00
2018-11-07T17:15:15.783Z,100.00
2018-11-07T17:17:44.900Z,100.00
2018-11-07T17:20:14.913Z,100.00
2018-11-07T17:22:44.344Z,100.00
2018-11-07T17:25:17.345Z,100.00
2018-11-07T17:27:46.503Z,100.00
2018-11-07T17:30:16.808Z,100.00
2018-11-07T17:32:45.918Z,100.00
2018-11-07T17:35:16.768Z,100.00
2018-11-07T17:37:46.772Z,100.00
2018-11-07T17:40:20.547Z,100.00
2018-11-07T17:42:49.882Z,100.00
2018-11-07T17:45:23.022Z,100.00
2018-11-07T17:47:53.800Z,100.00
2018-11-07T17:50:23.403Z,100.00
2018-11-07T17:52:53.249Z,100.00
2018-11-07T17:55:22.697Z,100.00
2018-11-07T17:57:52.479Z,100.00
2018-11-07T18:00:26.660Z,100.00
2018-11-07T18:02:55.911Z,100.00
2018-11-07T18:05:25.132Z,100.00
2018-11-07T18:07:54.432Z,100.00
2018-11-07T18:10:23.668Z,100.00
2018-11-07T18:12:52.856Z,100.00
2018-11-07T18:15:23.560Z,100.00
2018-11-07T18:17:52.941Z,100.00
2018-11-07T18:20:24.568Z,100.00
2018-11-07T18:22:54.359Z,100.00
2018-11-07T18:25:23.571Z,100.00
2018-11-07T18:27:53.417Z,100.00
2018-11-07T18:30:22.838Z,100.00
2018-11-07T18:32:52.061Z,100.00
2018-11-07T18:35:21.399Z,99.50
2018-11-07T18:37:50.523Z,98.11
2018-11-07T18:40:20.421Z,98.74
2018-11-07T18:42:49.524Z,98.92
2018-11-07T18:45:18.764Z,99.53
2018-11-07T18:47:47.955Z,100.00
2018-11-07T18:50:18.474Z,100.00
2018-11-07T18:52:47.542Z,99.19
2018-11-07T18:55:17.210Z,99.26
2018-11-07T18:57:46.717Z,99.33
2018-11-07T19:00:17.431Z,98.75
2018-11-07T19:02:47.133Z,97.94
2018-11-07T19:05:16.235Z,96.81
2018-11-07T19:07:45.233Z,97.74
2018-11-07T19:10:16.476Z,96.98
2018-11-07T19:12:46.289Z,97.72
2018-11-07T19:15:15.918Z,97.76
2018-11-07T19:17:45.833Z,97.38
2018-11-07T19:20:15.629Z,95.66
2018-11-07T19:22:44.649Z,96.78
2018-11-07T19:25:15.991Z,97.02
2018-11-07T19:27:45.053Z,97.47
2018-11-07T19:30:15.813Z,96.81
2018-11-07T19:32:45.927Z,96.15
2018-11-07T19:35:15.835Z,96.19
2018-11-07T19:37:46.693Z,95.11
2018-11-07T19:40:18.543Z,95.33
2018-11-07T19:42:48.919Z,95.43
2018-11-07T19:45:19.286Z,96.90
2018-11-07T19:47:49.976Z,97.45
2018-11-07T19:50:21.235Z,97.94
2018-11-07T19:52:51.256Z,98.91
2018-11-07T19:55:22.567Z,99.13
2018-11-07T19:57:58.228Z,99.53
2018-11-07T20:00:27.709Z,100.00
2018-11-07T20:02:57.130Z,100.00
2018-11-07T20:05:27.155Z,100.00
2018-11-07T20:07:56.436Z,100.00
2018-11-07T20:10:26.156Z,100.00
2018-11-07T20:12:55.604Z,100.00
2018-11-07T20:15:25.273Z,100.00
2018-11-07T20:20:11.801Z,100.00
2018-11-07T20:29:37.982Z,100.00
2018-11-07T20:32:11.747Z,100.00
2018-11-07T20:34:42.623Z,100.00
2018-11-07T20:37:13.087Z,100.00
2018-11-07T20:39:43.038Z,100.00
2018-11-07T20:42:12.905Z,100.00
2018-11-07T20:44:42.728Z,100.00
2018-11-07T20:47:12.652Z,100.00
2018-11-07T20:52:39.217Z,100.00
2018-11-07T20:55:13.591Z,100.00
2018-11-07T20:57:43.658Z,100.00
2018-11-07T21:00:28.030Z,100.00
2018-11-07T21:02:58.824Z,100.00
2018-11-07T21:08:07.386Z,100.00
2018-11-07T21:10:36.931Z,100.00
2018-11-07T21:13:07.906Z,100.00
2018-11-07T21:15:39.918Z,100.00
2018-11-07T21:18:11.032Z,100.00
2018-11-07T21:20:40.827Z,100.00
2018-11-07T21:23:12.206Z,100.00
2018-11-07T21:25:45.850Z,100.00
2018-11-07T21:28:18.111Z,100.00
2018-11-07T21:30:48.189Z,100.00
2018-11-07T21:33:17.866Z,100.00
2018-11-07T21:35:50.389Z,100.00
2018-11-07T21:38:21.130Z,100.00
2018-11-07T21:40:52.574Z,100.00
2018-11-07T21:43:23.538Z,100.00
2018-11-07T21:45:52.800Z,100.00
2018-11-07T21:48:23.012Z,100.00
2018-11-07T21:50:53.446Z,100.00
2018-11-07T21:53:23.529Z,100.00
2018-11-07T21:55:54.163Z,100.00
2018-11-07T21:58:24.867Z,100.00
2018-11-07T22:00:55.439Z,100.00
2018-11-07T22:03:27.909Z,100.00
2018-11-07T22:08:47.887Z,100.00
2018-11-07T22:11:17.606Z,100.00
2018-11-07T22:13:47.149Z,100.00
2018-11-07T22:16:16.744Z,100.00
2018-11-07T22:18:46.453Z,100.00
2018-11-07T22:21:16.297Z,100.00
2018-11-07T22:23:45.768Z,100.00
2018-11-07T22:26:15.256Z,100.00
2018-11-07T22:28:44.607Z,100.00
2018-11-07T22:31:15.941Z,100.00
2018-11-07T22:33:46.628Z,100.00
2018-11-07T22:36:16.341Z,100.00
2018-11-07T22:38:45.659Z,100.00
2018-11-07T22:41:15.198Z,100.00
2018-11-07T22:43:44.799Z,100.00
2018-11-07T22:46:14.515Z,100.00
2018-11-07T22:48:44.009Z,100.00
2018-11-07T22:51:13.834Z,100.00
2018-11-07T22:53:43.191Z,100.00
2018-11-07T22:56:12.670Z,100.00
2018-11-07T22:58:42.025Z,100.00
2018-11-07T23:01:43.172Z,100.00
2018-11-07T23:04:12.531Z,100.00
2018-11-07T23:06:41.659Z,100.00
2018-11-07T23:09:12.972Z,100.00
2018-11-07T23:11:43.378Z,100.00
2018-11-07T23:14:14.632Z,100.00
2018-11-07T23:16:43.918Z,100.00
2018-11-07T23:19:13.753Z,100.00
2018-11-07T23:21:43.205Z,100.00
2018-11-07T23:24:12.500Z,100.00
2018-11-07T23:26:41.906Z,100.00
2018-11-07T23:29:11.731Z,100.00
2018-11-07T23:31:41.310Z,100.00
2018-11-07T23:34:10.657Z,100.00
2018-11-07T23:36:41.150Z,100.00
2018-11-07T23:39:10.828Z,100.00
2018-11-07T23:41:40.069Z,100.00
2018-11-07T23:44:09.642Z,100.00
2018-11-07T23:46:39.031Z,100.00
2018-11-07T23:49:08.478Z,100.00
2018-11-07T23:51:43.756Z,100.00
2018-11-07T23:54:14.228Z,100.00
2018-11-07T23:56:43.822Z,100.00
2018-11-07T23:59:13.643Z,100.00
